createdAt,value
2018-12-31T00:01:45.934Z,5.75
2018-12-31T00:04:51.071Z,5.72
2018-12-31T00:07:56.292Z,5.63
2018-12-31T00:11:01.496Z,5.62
2018-12-31T00:14:06.653Z,5.72
2018-12-31T00:17:11.818Z,5.91
2018-12-31T00:20:16.989Z,5.75
2018-12-31T00:23:22.223Z,5.71
2018-12-31T00:26:27.367Z,5.63
2018-12-31T00:29:32.542Z,5.61
2018-12-31T00:32:37.811Z,5.62
2018-12-31T00:35:42.983Z,5.58
2018-12-31T00:38:48.156Z,5.58
2018-12-31T00:41:53.304Z,5.61
2018-12-31T00:44:58.542Z,5.68
2018-12-31T00:48:03.738Z,5.67
2018-12-31T00:51:08.916Z,5.67
2018-12-31T00:54:14.097Z,5.75
2018-12-31T00:57:19.282Z,5.73
2018-12-31T01:00:24.465Z,5.66
2018-12-31T01:03:29.681Z,5.73
2018-12-31T01:06:34.816Z,5.75
2018-12-31T01:09:40.040Z,5.70
2018-12-31T01:12:45.188Z,5.77
2018-12-31T01:15:50.319Z,5.69
2018-12-31T01:18:55.502Z,5.74
2018-12-31T01:22:06.073Z,5.65
2018-12-31T01:25:11.243Z,5.62
2018-12-31T01:28:16.348Z,5.63
2018-12-31T01:31:21.478Z,5.64
2018-12-31T01:34:26.606Z,5.62
2018-12-31T01:37:31.947Z,5.60
2018-12-31T01:40:37.069Z,5.77
2018-12-31T01:43:42.283Z,5.92
2018-12-31T01:46:47.468Z,5.87
2018-12-31T01:49:52.686Z,5.87
2018-12-31T01:52:57.848Z,5.87
2018-12-31T01:56:02.985Z,5.78
2018-12-31T01:59:08.253Z,5.71
2018-12-31T02:02:13.349Z,5.71
2018-12-31T02:05:18.564Z,6.16
2018-12-31T02:08:23.797Z,5.88
2018-12-31T02:11:28.999Z,5.86
2018-12-31T02:14:34.204Z,5.92
2018-12-31T02:17:39.595Z,6.12
2018-12-31T02:20:44.820Z,6.04
2018-12-31T02:23:49.955Z,5.84
2018-12-31T02:26:55.150Z,5.82
2018-12-31T02:30:00.448Z,5.75
2018-12-31T02:33:05.631Z,5.65
2018-12-31T02:36:10.892Z,5.83
2018-12-31T02:39:16.079Z,5.64
2018-12-31T02:42:21.233Z,5.65
2018-12-31T02:45:26.333Z,5.61
2018-12-31T02:48:31.523Z,5.73
2018-12-31T02:51:36.636Z,5.71
2018-12-31T02:54:41.806Z,5.96
2018-12-31T02:57:46.973Z,5.92
2018-12-31T03:00:52.236Z,5.93
2018-12-31T03:03:57.407Z,5.82
2018-12-31T03:07:02.563Z,5.86
2018-12-31T03:10:07.932Z,5.79
2018-12-31T03:13:13.125Z,5.98
2018-12-31T03:16:18.359Z,5.87
2018-12-31T03:19:23.647Z,5.86
2018-12-31T03:22:28.758Z,5.84
2018-12-31T03:25:33.915Z,5.92
2018-12-31T03:28:39.106Z,5.89
2018-12-31T03:31:44.282Z,5.83
2018-12-31T03:34:49.466Z,5.87
2018-12-31T03:37:54.671Z,5.86
2018-12-31T03:41:00.265Z,6.08
2018-12-31T03:44:05.404Z,6.03
2018-12-31T03:47:12.293Z,6.11
2018-12-31T03:50:17.569Z,6.07
2018-12-31T03:53:22.779Z,5.99
2018-12-31T03:56:27.921Z,6.14
2018-12-31T03:59:33.168Z,6.17
2018-12-31T04:02:38.428Z,5.94
2018-12-31T04:05:43.628Z,5.87
2018-12-31T04:08:48.831Z,5.86
2018-12-31T04:11:53.921Z,5.83
2018-12-31T04:14:59.129Z,5.82
2018-12-31T04:18:04.278Z,5.83
2018-12-31T04:21:09.494Z,5.82
2018-12-31T04:24:14.675Z,5.84
2018-12-31T04:27:19.886Z,5.84
2018-12-31T04:30:25.035Z,5.80
2018-12-31T04:33:30.252Z,5.87
2018-12-31T04:36:35.377Z,5.85
2018-12-31T04:39:40.486Z,5.85
2018-12-31T04:42:45.738Z,5.87
2018-12-31T04:45:50.920Z,5.89
2018-12-31T04:48:56.108Z,5.86
2018-12-31T04:52:01.590Z,5.82
2018-12-31T04:55:06.775Z,5.83
2018-12-31T04:58:11.961Z,5.85
2018-12-31T05:01:17.119Z,5.89
2018-12-31T05:04:22.330Z,5.91
2018-12-31T05:07:27.507Z,5.88
2018-12-31T05:10:32.641Z,5.86
2018-12-31T05:13:37.897Z,5.80
2018-12-31T05:16:42.940Z,5.82
2018-12-31T05:19:48.170Z,5.84
2018-12-31T05:22:53.354Z,5.87
2018-12-31T05:25:58.464Z,5.89
2018-12-31T05:29:03.564Z,5.85
2018-12-31T05:32:08.721Z,5.90
2018-12-31T05:35:13.929Z,5.84
2018-12-31T05:38:19.068Z,5.79
2018-12-31T05:41:24.587Z,5.75
2018-12-31T05:44:29.750Z,5.79
2018-12-31T05:47:34.959Z,5.72
2018-12-31T05:50:40.086Z,5.72
2018-12-31T05:53:45.286Z,5.73
2018-12-31T05:56:50.443Z,5.73
2018-12-31T05:59:55.600Z,5.76
2018-12-31T06:03:00.715Z,5.73
2018-12-31T06:06:05.833Z,5.79
2018-12-31T06:09:11.065Z,5.78
2018-12-31T06:12:16.259Z,5.77
2018-12-31T06:15:21.429Z,5.77
2018-12-31T06:18:26.624Z,5.70
2018-12-31T06:21:31.711Z,5.70
2018-12-31T06:24:36.924Z,5.67
2018-12-31T06:27:42.094Z,5.66
2018-12-31T06:30:47.292Z,5.64
2018-12-31T06:33:52.576Z,5.63
2018-12-31T06:36:57.730Z,5.65
2018-12-31T06:40:02.894Z,5.62
2018-12-31T06:43:08.101Z,5.58
2018-12-31T06:46:13.265Z,5.58
2018-12-31T06:49:18.471Z,5.56
2018-12-31T06:52:23.639Z,5.56
2018-12-31T06:55:28.870Z,5.49
2018-12-31T06:58:34.090Z,5.52
2018-12-31T07:01:39.216Z,5.59
2018-12-31T07:04:44.414Z,5.59
2018-12-31T07:07:49.632Z,5.58
2018-12-31T07:10:54.776Z,5.73
2018-12-31T07:13:59.976Z,5.99
2018-12-31T07:17:05.152Z,5.86
2018-12-31T07:20:10.348Z,5.68
2018-12-31T07:23:15.554Z,5.67
2018-12-31T07:26:21.764Z,5.70
2018-12-31T07:29:26.927Z,5.64
2018-12-31T07:32:32.117Z,5.61
2018-12-31T07:35:37.281Z,5.63
2018-12-31T07:38:42.481Z,5.63
2018-12-31T07:41:47.636Z,5.69
2018-12-31T07:44:52.830Z,5.71
2018-12-31T07:47:59.225Z,5.68
2018-12-31T07:51:04.456Z,5.64
2018-12-31T07:54:09.654Z,5.76
2018-12-31T07:57:14.749Z,5.71
2018-12-31T08:00:19.957Z,5.68
2018-12-31T08:03:25.140Z,5.75
2018-12-31T08:06:30.317Z,5.74
2018-12-31T08:09:35.536Z,5.81
2018-12-31T08:12:40.719Z,5.85
2018-12-31T08:15:46.472Z,5.94
2018-12-31T08:18:51.648Z,5.97
2018-12-31T08:21:56.840Z,6.00
2018-12-31T08:25:02.038Z,6.03
2018-12-31T08:28:07.203Z,6.10
2018-12-31T08:31:12.378Z,6.13
2018-12-31T08:34:17.641Z,6.11
2018-12-31T08:37:22.782Z,6.20
2018-12-31T08:40:27.966Z,6.26
2018-12-31T08:43:33.166Z,6.15
2018-12-31T08:46:38.308Z,6.23
2018-12-31T08:49:43.532Z,6.32
2018-12-31T08:52:48.755Z,6.34
2018-12-31T08:55:53.887Z,6.45
2018-12-31T08:58:59.083Z,6.50
2018-12-31T09:02:04.227Z,6.50
2018-12-31T09:05:09.470Z,6.55
2018-12-31T09:08:14.640Z,6.59
2018-12-31T09:11:19.826Z,6.53
2018-12-31T09:14:24.993Z,6.60
2018-12-31T09:17:30.085Z,6.52
2018-12-31T09:20:35.316Z,6.43
2018-12-31T09:23:40.478Z,6.38
2018-12-31T09:26:45.654Z,6.34
2018-12-31T09:29:50.842Z,6.28
2018-12-31T09:32:55.976Z,6.27
2018-12-31T09:36:01.117Z,6.41
2018-12-31T09:39:08.077Z,6.45
2018-12-31T09:42:13.256Z,6.61
2018-12-31T09:45:18.441Z,6.76
2018-12-31T09:48:23.647Z,7.05
2018-12-31T09:51:28.827Z,7.11
2018-12-31T09:54:34.079Z,7.36
2018-12-31T09:57:39.274Z,7.48
2018-12-31T10:00:44.443Z,7.78
2018-12-31T10:03:49.614Z,7.53
2018-12-31T10:06:54.777Z,7.73
2018-12-31T10:09:59.918Z,7.83
2018-12-31T10:13:05.099Z,7.77
2018-12-31T10:16:10.276Z,7.77
2018-12-31T10:19:15.430Z,7.86
2018-12-31T10:22:20.557Z,8.19
2018-12-31T10:25:25.726Z,8.34
2018-12-31T10:28:30.920Z,8.65
2018-12-31T10:31:36.065Z,8.55
2018-12-31T10:34:41.349Z,8.64
2018-12-31T10:37:46.531Z,8.66
2018-12-31T10:40:51.724Z,8.76
2018-12-31T10:43:56.921Z,9.00
2018-12-31T10:47:02.141Z,8.95
2018-12-31T10:50:07.690Z,8.94
2018-12-31T10:53:12.955Z,8.96
2018-12-31T10:56:18.054Z,9.44
2018-12-31T10:59:23.289Z,8.84
2018-12-31T11:02:28.399Z,8.76
2018-12-31T11:05:33.597Z,8.70
2018-12-31T11:08:38.753Z,9.19
2018-12-31T11:11:44.240Z,8.96
2018-12-31T11:14:49.419Z,9.39
2018-12-31T11:17:54.582Z,9.09
2018-12-31T11:20:59.845Z,9.36
2018-12-31T11:24:05.127Z,9.22
2018-12-31T11:27:11.182Z,9.26
2018-12-31T11:30:16.496Z,8.94
2018-12-31T11:33:21.652Z,9.08
2018-12-31T11:36:26.826Z,9.36
2018-12-31T11:39:32.273Z,9.22
2018-12-31T11:42:37.478Z,8.89
2018-12-31T11:45:42.609Z,9.27
2018-12-31T11:48:47.853Z,8.93
2018-12-31T11:51:52.973Z,8.99
2018-12-31T11:54:58.215Z,8.92
2018-12-31T11:58:03.416Z,9.23
2018-12-31T12:01:08.747Z,9.08
2018-12-31T12:04:13.921Z,9.03
2018-12-31T12:07:19.111Z,8.99
2018-12-31T12:10:24.247Z,9.23
2018-12-31T12:13:29.471Z,9.45
2018-12-31T12:16:34.623Z,9.42
2018-12-31T12:19:39.815Z,9.28
2018-12-31T12:22:44.995Z,9.12
2018-12-31T12:25:50.246Z,9.20
2018-12-31T12:28:55.446Z,9.02
2018-12-31T12:32:00.615Z,9.32
2018-12-31T12:35:05.847Z,9.17
2018-12-31T12:38:11.027Z,8.96
2018-12-31T12:41:16.222Z,9.23
2018-12-31T12:44:21.598Z,9.72
2018-12-31T12:47:26.758Z,9.41
2018-12-31T12:50:31.979Z,9.30
2018-12-31T12:53:37.341Z,9.63
2018-12-31T12:56:42.512Z,9.56
2018-12-31T12:59:47.786Z,9.31
2018-12-31T13:02:53.007Z,9.43
2018-12-31T13:05:58.628Z,9.65
2018-12-31T13:09:04.747Z,9.75
2018-12-31T13:12:10.256Z,9.67
2018-12-31T13:15:15.586Z,9.47
2018-12-31T13:18:22.154Z,9.31
2018-12-31T13:21:27.403Z,9.21
2018-12-31T13:24:32.728Z,9.06
2018-12-31T13:27:37.879Z,9.08
2018-12-31T13:30:43.262Z,9.08
2018-12-31T13:33:48.462Z,8.81
2018-12-31T13:36:53.659Z,9.06
2018-12-31T13:39:59.054Z,8.95
2018-12-31T13:43:04.331Z,9.16
2018-12-31T13:46:09.563Z,9.04
2018-12-31T13:49:14.702Z,8.84
2018-12-31T13:52:19.878Z,8.82
2018-12-31T13:55:25.086Z,9.14
2018-12-31T13:58:30.272Z,9.12
2018-12-31T14:01:35.444Z,9.07
2018-12-31T14:04:40.953Z,9.07
2018-12-31T14:07:46.165Z,8.98
2018-12-31T14:10:51.421Z,8.96
2018-12-31T14:13:56.566Z,8.85
2018-12-31T14:17:02.157Z,8.86
2018-12-31T14:20:07.506Z,8.82
2018-12-31T14:23:12.949Z,9.13
2018-12-31T14:26:18.288Z,8.95
2018-12-31T14:29:23.798Z,8.63
2018-12-31T14:32:28.992Z,8.84
2018-12-31T14:35:34.318Z,8.65
2018-12-31T14:38:39.509Z,8.65
2018-12-31T14:41:45.871Z,8.32
2018-12-31T14:44:51.108Z,8.44
2018-12-31T14:47:56.303Z,8.24
2018-12-31T14:51:01.494Z,8.55
2018-12-31T14:54:06.909Z,8.37
2018-12-31T14:57:12.125Z,8.49
2018-12-31T15:00:17.468Z,8.63
2018-12-31T15:03:22.755Z,8.53
2018-12-31T15:06:27.913Z,8.51
2018-12-31T15:09:33.251Z,8.58
2018-12-31T15:12:38.421Z,8.33
2018-12-31T15:15:44.333Z,8.22
2018-12-31T15:18:49.588Z,8.34
2018-12-31T15:21:55.002Z,8.47
2018-12-31T15:25:00.185Z,8.23
2018-12-31T15:28:05.623Z,8.14
2018-12-31T15:31:10.828Z,8.19
2018-12-31T15:34:16.065Z,8.37
2018-12-31T15:37:21.223Z,8.19
2018-12-31T15:40:26.582Z,8.06
2018-12-31T15:43:31.718Z,8.11
2018-12-31T15:46:36.897Z,8.01
2018-12-31T15:49:42.167Z,8.05
2018-12-31T15:52:47.431Z,8.13
2018-12-31T15:55:52.763Z,8.31
2018-12-31T15:58:58.070Z,8.29
2018-12-31T16:02:08.016Z,8.07
2018-12-31T16:05:13.181Z,7.93
2018-12-31T16:08:18.525Z,7.88
2018-12-31T16:11:25.155Z,7.86
2018-12-31T16:14:30.595Z,7.77
2018-12-31T16:17:35.937Z,7.85
2018-12-31T16:20:41.226Z,7.88
2018-12-31T16:23:46.442Z,7.88
2018-12-31T16:26:52.197Z,7.82
2018-12-31T16:29:57.449Z,8.08
2018-12-31T16:33:02.709Z,8.10
2018-12-31T16:36:07.911Z,8.06
2018-12-31T16:39:13.178Z,7.88
2018-12-31T16:42:18.871Z,7.73
2018-12-31T16:45:24.261Z,7.72
2018-12-31T16:48:32.248Z,7.73
2018-12-31T16:51:37.541Z,7.67
2018-12-31T16:54:42.712Z,7.65
2018-12-31T16:57:47.934Z,7.79
2018-12-31T17:00:53.885Z,7.75
2018-12-31T17:03:59.077Z,7.63
2018-12-31T17:07:04.271Z,7.58
2018-12-31T17:10:10.797Z,7.53
2018-12-31T17:13:16.438Z,7.67
2018-12-31T17:16:21.568Z,7.55
2018-12-31T17:19:28.658Z,7.44
2018-12-31T17:22:33.831Z,7.43
2018-12-31T17:25:39.152Z,7.48
2018-12-31T17:28:45.389Z,7.42
2018-12-31T17:31:50.591Z,7.39
2018-12-31T17:34:55.863Z,7.51
2018-12-31T17:38:01.391Z,7.50
2018-12-31T17:41:06.576Z,7.44
2018-12-31T17:44:12.072Z,7.42
2018-12-31T17:47:17.356Z,7.47
2018-12-31T17:50:22.537Z,7.44
2018-12-31T17:53:27.763Z,7.43
2018-12-31T17:56:33.003Z,7.49
2018-12-31T17:59:38.713Z,7.48
2018-12-31T18:02:44.085Z,7.45
2018-12-31T18:05:49.245Z,7.54
2018-12-31T18:08:54.390Z,7.48
2018-12-31T18:11:59.678Z,7.42
2018-12-31T18:15:05.091Z,7.37
2018-12-31T18:18:10.431Z,7.34
2018-12-31T18:21:15.593Z,7.38
2018-12-31T18:24:20.804Z,7.31
2018-12-31T18:27:26.123Z,7.27
2018-12-31T18:30:31.373Z,7.26
2018-12-31T18:33:36.556Z,7.23
2018-12-31T18:36:41.886Z,7.24
2018-12-31T18:39:49.376Z,7.20
2018-12-31T18:42:54.017Z,7.16
2018-12-31T18:45:59.442Z,7.20
2018-12-31T18:49:04.695Z,7.19
2018-12-31T18:52:09.900Z,7.16
2018-12-31T18:55:15.171Z,7.10
2018-12-31T18:58:20.418Z,7.14
2018-12-31T19:01:25.587Z,7.12
2018-12-31T19:04:30.861Z,7.08
2018-12-31T19:07:36.182Z,7.18
2018-12-31T19:10:41.372Z,7.31
2018-12-31T19:13:46.693Z,7.24
2018-12-31T19:16:51.844Z,7.21
2018-12-31T19:19:57.631Z,7.18
2018-12-31T19:23:02.788Z,7.21
2018-12-31T19:26:08.126Z,7.23
2018-12-31T19:29:13.356Z,7.52
2018-12-31T19:32:18.546Z,7.40
2018-12-31T19:35:23.683Z,7.25
2018-12-31T19:38:28.915Z,7.23
2018-12-31T19:41:34.081Z,7.14
2018-12-31T19:44:39.404Z,7.18
2018-12-31T19:47:44.550Z,7.15
2018-12-31T19:50:49.736Z,7.14
2018-12-31T19:53:55.078Z,7.28
2018-12-31T19:57:00.228Z,7.17
2018-12-31T20:00:05.882Z,7.22
2018-12-31T20:03:11.683Z,7.17
2018-12-31T20:06:16.922Z,7.15
2018-12-31T20:09:22.104Z,7.12
2018-12-31T20:12:27.328Z,7.10
2018-12-31T20:15:32.542Z,7.11
2018-12-31T20:18:37.679Z,7.07
2018-12-31T20:21:42.928Z,7.31
2018-12-31T20:24:48.149Z,7.23
2018-12-31T20:27:53.475Z,7.10
2018-12-31T20:30:58.643Z,7.10
2018-12-31T20:34:03.945Z,7.07
2018-12-31T20:37:09.268Z,7.06
2018-12-31T20:40:14.450Z,7.14
2018-12-31T20:43:19.597Z,7.31
2018-12-31T20:46:24.859Z,7.12
2018-12-31T20:49:30.515Z,7.15
2018-12-31T20:52:35.712Z,7.06
2018-12-31T20:55:40.990Z,7.04
2018-12-31T20:58:46.165Z,7.04
2018-12-31T21:01:51.308Z,7.02
2018-12-31T21:04:56.527Z,7.01
2018-12-31T21:08:01.734Z,7.03
2018-12-31T21:11:07.290Z,6.99
2018-12-31T21:14:12.491Z,7.04
2018-12-31T21:17:17.670Z,7.07
2018-12-31T21:20:22.896Z,7.01
2018-12-31T21:23:28.276Z,7.03
2018-12-31T21:26:33.726Z,7.01
2018-12-31T21:29:38.954Z,7.01
2018-12-31T21:32:44.172Z,7.04
2018-12-31T21:35:49.358Z,6.94
2018-12-31T21:38:54.663Z,6.94
2018-12-31T21:41:59.887Z,6.86
2018-12-31T21:45:05.496Z,6.83
2018-12-31T21:48:10.666Z,6.82
2018-12-31T21:51:15.933Z,6.88
2018-12-31T21:54:21.110Z,6.87
2018-12-31T21:57:26.405Z,6.98
2018-12-31T22:00:31.568Z,6.89
2018-12-31T22:03:36.837Z,6.94
2018-12-31T22:06:42.293Z,6.99
2018-12-31T22:09:47.569Z,6.98
2018-12-31T22:12:52.861Z,6.93
2018-12-31T22:15:58.035Z,6.87
2018-12-31T22:19:03.286Z,6.90
2018-12-31T22:22:08.501Z,6.86
2018-12-31T22:25:13.854Z,6.90
2018-12-31T22:28:19.148Z,6.82
2018-12-31T22:31:24.367Z,6.83
2018-12-31T22:34:29.534Z,6.85
2018-12-31T22:37:34.753Z,6.86
2018-12-31T22:40:40.335Z,6.96
2018-12-31T22:43:45.570Z,6.93
2018-12-31T22:46:50.937Z,6.96
2018-12-31T22:49:56.337Z,6.92
2018-12-31T22:53:01.491Z,6.95
2018-12-31T22:56:06.677Z,6.97
2018-12-31T22:59:13.359Z,7.02
2018-12-31T23:02:18.514Z,6.98
2018-12-31T23:05:23.716Z,6.96
2018-12-31T23:08:29.199Z,6.88
2018-12-31T23:11:34.522Z,6.92
2018-12-31T23:14:39.811Z,6.95
2018-12-31T23:17:45.228Z,6.98
2018-12-31T23:20:50.550Z,6.96
2018-12-31T23:23:55.810Z,6.96
2018-12-31T23:27:02.418Z,6.96
2018-12-31T23:30:08.978Z,6.99
2018-12-31T23:33:14.256Z,7.07
2018-12-31T23:36:19.453Z,7.09
2018-12-31T23:39:24.762Z,7.07
2018-12-31T23:42:30.097Z,7.17
2018-12-31T23:45:35.317Z,7.25
2018-12-31T23:48:40.637Z,7.35
2018-12-31T23:51:45.926Z,7.39
2018-12-31T23:54:51.169Z,7.24
2018-12-31T23:57:56.532Z,7.23
